North Spring Valley, Nevada Weather observations

Data are for 10 minute period ending at time listed.
 Day   Time   Solar   Ave.   Ave.  Ave.  Vector  Max.   Baro.   Total    
  of    of     Rad.   Air    Rel.  Wind   Wind   Wind  Press.  Precip.   
Year   Day            Temp.  Hum.  Speed  Dir.   Gust                    
2017   (PST)  Kw/m2    F      %     mph   deg.    mph    mb.     in.     
-------------------------------------------------------------------------
  18    4:20   0.00    9.3    87    0.9    84     2.4   828.6    0.00 
  18    4:30   0.00    9.7    88    3.0   283     4.7   828.6    0.00 
  18    4:40   0.00   10.6    88    2.6   283     5.3   828.5    0.00 
  18    4:50   0.00   11.3    88    2.1   276     4.6   828.5    0.00 
  18    5:00   0.00   12.0    88    2.9   278     5.1   828.5    0.00 
  18    5:10   0.00   13.1    87    2.4   313     4.2   828.5    0.00 
  18    5:20   0.00   11.1    82    2.9    51     5.5   828.6    0.00 
  18    5:30   0.00    6.9    84    1.2   157     3.3   828.6    0.00 
  18    5:40   0.00    7.1    86    0.4   232     1.8   828.7    0.00 
  18    5:50   0.00    7.4    86    0.5    92     2.6   828.8    0.00 
  18    6:00   0.00    6.7    86    0.9    97     2.2   828.9    0.00 
  18    6:10   0.00    7.1    87    0.6   160     1.9   828.9    0.00 
  18    6:20   0.00    7.8    87    1.6   194     4.0   828.9    0.00 
  18    6:30   0.00    8.2    87    3.1   232     4.3   828.9    0.00 
  18    6:40   0.00    9.1    87    2.2   256     4.8   828.8    0.00 
  18    6:50   0.00    9.4    87    2.9   246     4.6   828.6    0.00 
  18    7:00   0.01   11.2    88    3.4   262     5.1   828.5    0.00 
  18    7:10   0.01   12.3    87    2.6   295     4.7   828.4    0.00 
  18    7:20   0.05   12.8    87    1.0     2     2.6   828.3    0.00 
  18    7:30   0.10   10.4    81    3.4    93     6.1   828.3    0.00 
  18    7:40   0.12    8.8    82    2.2   141     3.7   828.4    0.00 
  18    7:50   0.14    9.8    83    1.5   228     3.0   828.4    0.00 
  18    8:00   0.16   13.0    83    0.9   308     2.8   828.5    0.00 
  18    8:10   0.18   14.8    82    1.0   360     3.0   828.5    0.00 
  18    8:20   0.20   16.5    79    1.9    82     4.5   828.4    0.00 
  18    8:30   0.23   15.0    81    2.7    90     4.0   828.3    0.00 
  18    8:40   0.25   16.3    80    1.7    18     3.2   828.3    0.00 
  18    8:50   0.27   18.0    78    1.6    29     3.3   828.2    0.00 
  18    9:00   0.30   18.1    78    3.0    81     5.0   828.0    0.00 
  18    9:10   0.33   17.6    79    2.9    84     5.2   827.9    0.00 
  18    9:20   0.37   18.6    77    1.9   131     3.7   827.9    0.00 
  18    9:30   0.41   21.4    74    1.1   146     3.4   827.8    0.00 
  18    9:40   0.51   21.8    74    1.6    85     3.7   827.6    0.00 
  18    9:50   0.27   22.1    73    1.4    62     4.4   827.4    0.00 
  18   10:00   0.25   21.2    76    2.5    57     4.6   827.3    0.00 
  18   10:10   0.20   20.6    76    3.6   100     5.1   827.3    0.00 
  18   10:20   0.36   21.9    74    1.1   105     3.5   827.4    0.00 
  18   10:30   0.41   22.0    71    4.0   105     6.1   827.2    0.00 
  18   10:40   0.59   22.3    70    4.0   126     6.1   826.9    0.00 
  18   10:50   0.58   23.3    67    3.4   130     5.3   826.7    0.00 
  18   11:00   0.60   24.8    67    2.6   143     6.0   826.4    0.00 
  18   11:10   0.59   26.7    64    1.4   144     3.0   826.1    0.00 
  18   11:20   0.45   27.0    62    1.7   131     3.7   825.8    0.00 
  18   11:30   0.30   27.2    62    1.4    90     3.7   825.5    0.00 
  18   11:40   0.33   26.4    64    2.4    77     4.0   825.2    0.00 
  18   11:50   0.35   26.8    62    3.1   103     5.6   824.9    0.00 
  18   12:00   0.34   27.3    61    2.6   124     4.1   824.5    0.00 
  18   12:10   0.59   28.5    58    2.2   120     4.5   824.1    0.00 
  18   12:20   0.54   30.0    55    1.5   141     4.3   823.8    0.00 
  18   12:30   0.42   32.2    51    1.3   320     2.9   823.4    0.00 
  18   12:40   0.29   31.2    54    1.8   298     3.9   823.2    0.00 
  18   12:50   0.30   31.6    55    1.4   311     3.3   823.0    0.00 
  18   13:00   0.33   32.6    54    2.2    10     3.8   822.9    0.00 
  18   13:10   0.33   32.5    54    2.8    46     5.2   822.7    0.00 
  18   13:20   0.34   32.9    51    2.4    33     4.0   822.7    0.00 
  18   13:30   0.31   34.1    48    1.3    28     2.8   822.5    0.00 
  18   13:40   0.30   34.1    48    1.3    73     3.5   822.4    0.00 
  18   13:50   0.28   34.7    47    0.3    40     1.4   822.3    0.00 
  18   14:00   0.25   34.5    48    1.3    62     3.4   822.0    0.00 
  18   14:10   0.24   34.8    48    1.7   350     4.9   821.9    0.00 
  18   14:20   0.23   34.9    50    4.2   329     7.0   821.8    0.00 
  18   14:30   0.21   35.1    50    5.5   357     7.9   821.8    0.00 
  18   14:40   0.22   35.2    51    6.2   356     8.9   821.9    0.00 
  18   14:50   0.21   35.5    52    6.6     4     8.6   821.8    0.00 
  18   15:00   0.19   35.5    52    7.2     5     9.8   821.7    0.00 
  18   15:10   0.16   34.9    52    8.5   352    11.3   821.7    0.00 
  18   15:20   0.14   35.2    52    7.2   354     9.4   821.8    0.00 
  18   15:30   0.12   35.3    52    6.7   356     9.5   821.9    0.00 
  18   15:40   0.09   35.4    53    6.2   357    10.4   821.9    0.00 
  18   15:50   0.07   35.3    54    5.9   332     9.2   821.8    0.00 
  18   16:00   0.06   35.1    54    6.7   337     9.1   821.8    0.00 
  18   16:10   0.04   34.8    55    5.5   338     8.5   821.7    0.00 
  18   16:20   0.02   34.5    55    6.0   336     8.4   821.6    0.00 
  18   16:30   0.01   34.4    55    4.4   327     6.7   821.6    0.00 
  18   16:40   0.01   34.1    56    3.3   315     4.7   821.5    0.00 
  18   16:50   0.00   33.7    58    3.6   313     5.0   821.3    0.00 
  18   17:00   0.00   33.6    59    3.7   299     6.1   821.2    0.00 
  18   17:10   0.00   33.9    59    3.4   294     7.7   821.1    0.00 
  18   17:20   0.00   34.5    55    3.2    70     7.4   821.1    0.00 
  18   17:30   0.00   35.0    54    5.2    18     9.3   821.0    0.00 
  18   17:40   0.00   34.5    56    5.2   351     6.8   821.0    0.00 
  18   17:50   0.00   33.8    60    4.6   319     6.7   820.9    0.00 
  18   18:00   0.00   33.7    60    4.4   308     6.1   820.9    0.00 
  18   18:10   0.00   34.3    57    3.0   330     5.2   820.9    0.00 
  18   18:20   0.00   34.1    59    3.6    23     6.4   821.0    0.00 
  18   18:30   0.00   33.9    61    4.1     0     6.4   820.9    0.00 
  18   18:40   0.00   33.4    64    3.9   352     6.1   820.7    0.00 
  18   18:50   0.00   33.6    61    5.5     5    10.4   820.5    0.00 
  18   19:00   0.00   34.2    59    5.3   314    11.2   820.5    0.00 
  18   19:10   0.00   34.8    56    6.1   346    11.1   820.5    0.00 
  18   19:20   0.00   35.6    54    6.3   117    11.1   820.3    0.00 
  18   19:30   0.00   35.9    53    3.8   220     7.6   819.9    0.00 
  18   19:40   0.00   35.0    57    4.0   318     8.9   820.1    0.00 
  18   19:50   0.00   35.1    56    4.3   145    12.9   820.0    0.00 
  18   20:00   0.00   35.7    56    9.0   166    17.2   819.8    0.00 
  18   20:10   0.00   35.0    60    8.0   166    14.2   819.9    0.00 
  18   20:20   0.00   35.0    60    6.2   168    12.6   819.7    0.00 
  18   20:30   0.00   34.5    61    3.2   120    12.6   819.6    0.00 
  18   20:40   0.00   35.0    59    4.5   212     7.7   819.4    0.00 
  18   20:50   0.00   34.3    62    2.5    31     4.8   819.4    0.00 
  18   21:00   0.00   34.6    60    2.9   278     7.2   819.4    0.00 
  18   21:10   0.00   34.2    62    3.0    28     6.0   819.1    0.00 
  18   21:20   0.00   34.0    63    4.7   286     7.7   819.0    0.00 
  18   21:30   0.00   33.9    64    5.8   356    11.0   819.1    0.00 
  18   21:40   0.00   34.7    60    4.2    43     8.3   819.1    0.00 
  18   21:50   0.00   35.0    58    6.0   200    11.6   819.3    0.00 
  18   22:00   0.00   35.2    57    3.7    43     8.7   819.1    0.00 
  18   22:10   0.00   36.0    53    5.9   307    10.0   819.0    0.00 
  18   22:20   0.00   35.4    55    5.9    60    15.7   819.3    0.00 
  18   22:30   0.00   36.8    50    7.9   121    11.8   819.6    0.00 
  18   22:40   0.00   35.0    61   12.1   159    22.3   819.7    0.00 
  18   22:50   0.00   33.3    72   13.8   168    22.9   819.8    0.00 
  18   23:00   0.00   31.6    82   13.9   163    21.5   820.0    0.00 
  18   23:10   0.00   30.6    86   14.8   159    21.2   819.9    0.00 
  18   23:20   0.00   30.3    89   13.6   161    19.1   819.8    0.00 
  18   23:30   0.00   30.2    90   15.2   167    20.9   819.7    0.00 
  18   23:40   0.00   29.6    92   15.2   167    22.4   819.7    0.00 
  18   23:50   0.00   29.5    93   14.8   166    24.0   819.7    0.00 
  19    0:00   0.00   29.5    94   14.6   160    21.0   819.6    0.00 
  19    0:10   0.00   29.5    95   12.1   152    18.9   819.4    0.00 
  19    0:20   0.00   29.4    95   14.1   143    20.1   819.1    0.00 
  19    0:30   0.00   29.7    95   16.8   159    23.2   818.9    0.00 
  19    0:40   0.00   29.7    94   12.3   169    18.3   819.0    0.00 
  19    0:50   0.00   29.6    95   14.2   158    23.5   818.8    0.00 
  19    1:00   0.00   29.7    94   14.1   159    19.8   818.5    0.00 
  19    1:10   0.00   29.8    94   14.8   168    20.5   818.5    0.00 
  19    1:20   0.00   29.8    94   11.6   161    18.6   818.6    0.00 
  19    1:30   0.00   29.8    94   12.4   150    17.6   818.2    0.00 
  19    1:40   0.00   29.9    94    7.4   181    13.2   818.2    0.00 
  19    1:50   0.00   29.9    94    4.4   201    10.2   818.4    0.00 
  19    2:00   0.00   30.1    92    3.9   171     6.9   818.5    0.00 
  19    2:10   0.00   30.1    92    3.5   302     6.5   818.1    0.00 
  19    2:20   0.00   30.1    92    2.6   270     4.8   818.2    0.00 
  19    2:30   0.00   30.0    93    5.5   145    11.8   818.3    0.00 
  19    2:40   0.00   29.8    93    4.2   164    11.7   818.0    0.00 
  19    2:50   0.00   29.8    93    3.6   322     5.6   817.8    0.00 
  19    3:00   0.00   29.7    93    3.5   102     9.8   818.0    0.00 
  19    3:10   0.00   29.8    94    8.5   144    13.0   817.9    0.00 
  19    3:20   0.00   29.7    93    3.4   202     7.0   817.7    0.00 
  19    3:30   0.00   29.6    94    4.7   149     8.8   817.6    0.00 
  19    3:40   0.00   29.7    94    2.8   252     6.1   817.4    0.00 
  19    3:50   0.00   29.8    94    3.8   226     6.1   817.5    0.00 
  19    4:00   0.00   29.7    95    4.7   157     8.8   817.5    0.00 
  19    4:10   0.00   29.7    95    2.4   298     4.6   817.3    0.00 

Return to North Spring Valley graphs page.


Western Regional Climate Center,wrcc@dri.edu